Tottenham, Canada
Current Conditions -  °F | °C
As of 9:00 AM on Friday 31 Oct 2014 (Local Time) from CYBN Reporting Station
Light Rain Light Rain  
Wind Chill: 36°   Ceiling: 2300
Heat Index: 41°   Visibility: 8mi
Dew Point: 41°   Wind: 8mph
Humidity: 100%   Direction: 140°SE
Pressure: 29.93"   Gusts: NA
Location:  44.02°N, 79.8°W
Report Text: CYBN 311300Z AUTO 14007KT 8SM -RA OVC023 05/05 A2993 RMK PCPN0.5MM PAST HR SLP142
Loading
Personal Weather Stations






























Interactive Weather Map
Tropical Storm Tracking
New forecast layout! Learn more

10-Day Weather Forecast

Advertisements
Track Severe Weather on mobile